Tiempo atmosférico en la estación meteorológica de Boadilla Fuente San Esteban, Salamanca (785 m.)



Fecha
DESCASC
Temp. máxima en grados centígrados (hora)
DESCASC
Temp. mínima en grados centígrados (hora)
DESCASC
Temp. media en grados centígrados
DESCASC
Racha de viento máxima en m/sg (hora)
DESCASC
Velocidad máxima media en intervalos de 10 minutos(hora)
DESCASC
Precipitaciones diarias en mm
DESCASC
Precipitaciones de 00:00 a 06:00 en mm
DESCASC
Precipitaciones de 06:00 a 12:00 en mm
DESCASC
Precipitaciones de 12:00 a 18:00 en mm
DESCASC
Precipitaciones de 18:00 a 24:00 en mm
DESCASC
23-06-2019 25.7 (15:50) 11.8 (06:10) 18.8 9.44 (10:10) 6.11 (10:00) 0 0 0 0 0
22-06-2019 29 (18:30) 10.8 (05:20) 19.9 12.22 (12:20) 6.67 (17:50) 0 0 0 0 0
21-06-2019 24.9 (19:00) 9.4 (07:10) 17.1 8.33 (15:20) 4.72 (11:00) 0 0 0 0 0
20-06-2019 25 (15:50) 12.2 (00:00) 18.6 7.78 (19:20) 5 (17:10) 0.2 0 0 0.2 0
19-06-2019 23.3 (17:30) 13.7 (00:00) 18.5 9.72 (13:40) 5.56 (14:30) 0 0 0 0 0
18-06-2019 22.7 (17:50) 10.6 (00:00) 16.7 15.83 (19:10) 8.89 (16:20) 0 0 0 0 0
17-06-2019 27.1 (14:50) 8.5 (00:00) 17.8 10.83 (14:50) 6.11 (12:10) 0 0 0 0 0
16-06-2019 27.3 (16:40) 5.9 (00:00) 16.6 9.17 (18:10) 5.28 (18:50) 0 0 0 0 0
15-06-2019 22.6 (18:30) 5.3 (00:00) 14 7.5 (19:00) 3.61 (18:00) 0 0 0 0 0
14-06-2019 19.5 (16:00) 4.2 (00:00) 11.8 11.11 (15:40) 6.39 (21:00) 0 0 0 0 0
13-06-2019 23.1 (17:40) 5.7 (00:00) 14.4 9.44 (16:30) 5 (16:40) 0 0 0 0 0
12-06-2019 22 (18:40) 2.7 (00:00) 12.4 8.89 (11:10) 5.83 (09:10) 0 0 0 0 0
11-06-2019 19.7 (16:50) 9.2 (00:00) 14.5 10.83 (16:20) 7.78 (16:20) 0 0 0 0 0
10-06-2019 22.2 (17:50) 5.7 (00:00) 14 8.89 (15:30) 5 (21:00) 0 0 0 0 0
09-06-2019 21.7 (16:40) 7.1 (00:00) 14.4 9.17 (18:00) 5.83 (19:40) 0 0 0 0 0
08-06-2019 23.8 (17:00) 2.7 (00:00) 13.2 7.78 (20:50) 5 (11:00) 0 0 0 0 0
07-06-2019 17.4 (17:50) 6.8 (00:00) 12.1 8.61 (00:40) 5 (00:50) 0 0 0 0 0
06-06-2019 19.6 (17:00) 3 (00:00) 11.3 17.78 (21:00) 10.83 (17:10) 4 0 0 0 4
05-06-2019 17.4 (17:10) 7 (00:00) 12.2 10.83 (17:10) 6.67 (17:00) 0 0 0 0 0
04-06-2019 21.7 (15:10) 11.4 (00:00) 16.6 12.22 (16:10) 7.5 (16:10) 0 0 0 0 0
03-06-2019 29.5 (16:40) 10.2 (00:00) 19.8 11.67 (19:00) 6.67 (19:00) 0 0 0 0 0
02-06-2019 31.6 (15:50) 11.9 (00:00) 21.8 10.83 (16:50) 6.67 (16:40) 0 0 0 0 0
01-06-2019 32.6 (17:20) 11.2 (00:00) 21.9 8.33 (16:20) 5 (18:30) 0 0 0 0 0
31-05-2019 31 (19:00) 9 (00:00) 20 7.22 (16:50) 3.89 (00:30) 0 0 0 0 0
30-05-2019 29 (17:50) 8.6 (00:00) 18.8 9.17 (12:40) 6.39 (12:30) 0 0 0 0 0
29-05-2019 24.7 (17:40) 8.2 (00:00) 16.5 15.83 (15:20) 8.33 (10:10) 0 0 0 0 0
28-05-2019 23.9 (17:30) 9 (00:00) 16.4 11.39 (23:59) 7.78 (23:50) 0 0 0 0 0
27-05-2019 25.9 (18:00) 9.9 (00:00) 17.9 8.33 (15:10) 4.72 (10:40) 0 0 0 0 0

Gráficas

Temp. máximas Temp. mínimas Temp. medias Precipitaciones Rachas de viento máximas Velocidades máximas media en intervalos de 10 minutos

Datos horarios

Fecha y hora oficial Temperatura (ºC) Velocidad del viento (km/h) Dirección del viento Racha (km/h) Dirección de racha Precipitación (mm) Presión (hPa) Tendencia (hPa) Humedad (%)
2019-06-25 23:00:00 19.7 7 Norte 17 Norte 0 -- -- 74
2019-06-25 22:00:00 22.2 9 Norte 19 Norte 0 -- -- 66
2019-06-25 21:00:00 24.6 12 Norte 20 Norte 0 -- -- 57
2019-06-25 20:00:00 26 4 Este 15 Este 0 -- -- 46
2019-06-25 19:00:00 25.1 6 Noroeste 17 Oeste 0 -- -- 52
2019-06-25 18:00:00 25.7 9 Oeste 18 Oeste 0 -- -- 52
2019-06-25 17:00:00 25.6 8 Oeste 20 Oeste 0 -- -- 50
2019-06-25 16:00:00 24.8 11 Oeste 19 Noroeste 0 -- -- 55
2019-06-25 15:00:00 24.8 11 Oeste 20 Sudoeste 0 -- -- 56
2019-06-25 14:00:00 22.5 6 Oeste 18 Sudoeste 0 -- -- 64
2019-06-25 13:00:00 20.8 6 Oeste 13 Sudoeste 0 -- -- 72
2019-06-25 12:00:00 18.2 6 Noroeste 13 Oeste 0 -- -- 81
2019-06-25 11:00:00 16.2 2 Noroeste 6 Este 0 -- -- 89
2019-06-25 10:00:00 14.2 0 Calma 4 Oeste 0 -- -- 94
2019-06-25 09:00:00 13.4 0 Calma 5 Oeste 0 -- -- 96
2019-06-25 08:00:00 13.1 0 Calma 3 Oeste 0.2 -- -- 97
2019-06-25 07:00:00 12.7 0 Calma 4 Noroeste 0 -- -- 97
2019-06-25 06:00:00 12.6 3 Oeste 4 Oeste 0 -- -- 96
2019-06-25 05:00:00 12.5 0 Calma 3 Nordeste 0.2 -- -- 97
2019-06-25 04:00:00 12.4 0 Calma 6 Oeste 0 -- -- 97
2019-06-25 03:00:00 12.3 0 Calma 8 Norte 0 -- -- 96
2019-06-25 02:00:00 12.4 2 Norte 6 Noroeste 0 -- -- 96
2019-06-25 01:00:00 12.8 2 Noroeste 4 Noroeste 0 -- -- 95
2019-06-25 00:00:00 13.4 2 Este 12 Este 0 -- -- 95
2019-06-24 23:00:00 13.1 8 Este 13 Este 0 -- -- 96
2019-06-24 22:00:00 13 4 Sudeste 8 Este 0 -- -- 94
2019-06-24 21:00:00 12.5 0 Calma 9 Oeste 0.8 -- -- 95
2019-06-24 20:00:00 12 4 Sudeste 15 Sudeste 3.6 -- -- 95
2019-06-24 19:00:00 11.6 4 Sur 24 Oeste 7.4 -- -- 94
2019-06-24 18:00:00 12.8 13 Oeste 28 Oeste 0 -- -- 82
2019-06-24 17:00:00 13.6 15 Oeste 26 Oeste 0 -- -- 83
2019-06-24 16:00:00 14.9 10 Oeste 22 Oeste 0 -- -- 80
2019-06-24 15:00:00 15.7 15 Oeste 23 Oeste 0 -- -- 72
2019-06-24 14:00:00 15.2 12 Oeste 24 Noroeste 0 -- -- 77
2019-06-24 13:00:00 14.6 19 Noroeste 35 Oeste 0 -- -- 80
2019-06-24 12:00:00 19.5 12 Noroeste 21 Noroeste 0 -- -- 72
2019-06-24 11:00:00 19.4 6 Noroeste 12 Noroeste 0 -- -- 81
2019-06-24 10:00:00 18.5 4 Noroeste 19 Noroeste 0 -- -- 86
2019-06-24 09:00:00 18.1 6 Sudeste 10 Sudeste 0 -- -- 82
2019-06-24 08:00:00 16.6 5 Sudeste 9 Sudeste 0 -- -- 89
2019-06-24 07:00:00 16.5 0 Calma 6 Este 0.2 -- -- 89
2019-06-24 06:00:00 16.8 2 Noroeste 5 Sudeste 0 -- -- 84
2019-06-24 05:00:00 17 0 Calma 6 Norte 0 -- -- 83
2019-06-24 04:00:00 17.1 0 Calma 5 Sur 0 -- -- 82
2019-06-24 03:00:00 17.1 4 Este 6 Este 0 -- -- 83
2019-06-24 02:00:00 17.4 0 Calma -- -- 0 -- -- 80
2019-06-24 01:00:00 17.7 0 Calma 7 Oeste 0 -- -- 80
2019-06-24 00:00:00 18.5 0 Calma 9 Oeste 0 -- -- 75
2019-06-23 23:00:00 19.1 6 Oeste 9 Oeste 0 -- -- 61
2019-06-23 22:00:00 21.4 7 Oeste 18 Oeste 0 -- -- 50
2019-06-23 21:00:00 23.3 7 Oeste 16 Oeste 0 -- -- 42
2019-06-23 20:00:00 23.9 7 Oeste 21 Oeste 0 -- -- 36
2019-06-23 19:00:00 24.3 12 Oeste 24 Oeste 0 -- -- 32
2019-06-23 18:00:00 24.8 14 Oeste 31 Oeste 0 -- -- 31
2019-06-23 17:00:00 24.7 19 Oeste 32 Sudoeste 0 -- -- 32
2019-06-23 16:00:00 25.5 22 Sudoeste 32 Sudoeste 0 -- -- 30
2019-06-23 15:00:00 25.2 15 Sudoeste 29 Sudoeste 0 -- -- 27
2019-06-23 14:00:00 25 19 Sur 33 Sudoeste 0 -- -- 25
2019-06-23 13:00:00 24.5 19 Sur 32 Sudoeste 0 -- -- 25
2019-06-23 12:00:00 23.1 13 Sudoeste 23 Sudoeste 0 -- -- 29
2019-06-23 11:00:00 21.7 13 Sudoeste 34 Sur 0 -- -- 34
2019-06-23 10:00:00 22.6 22 Sur 33 Sudoeste 0 -- -- 25
2019-06-23 09:00:00 17.3 10 Sudeste 22 Este 0 -- -- 50
2019-06-23 08:00:00 13.4 9 Sudeste 15 Sudeste 0 -- -- 62
2019-06-23 07:00:00 12 7 Sudeste 13 Sudeste 0 -- -- 65
2019-06-23 06:00:00 11.9 5 Sudeste 7 Sudeste 0 -- -- 67
2019-06-23 05:00:00 12.6 5 Oeste 8 Oeste 0 -- -- 64
2019-06-23 04:00:00 12.6 0 Calma 9 Oeste 0 -- -- 62
2019-06-23 03:00:00 14.2 6 Sudeste 10 Sudeste 0 -- -- 59
2019-06-23 02:00:00 16 5 Sudoeste 10 Sudoeste 0 -- -- 55
2019-06-23 01:00:00 16.4 8 Sudoeste 12 Sudoeste 0 -- -- 52
2019-06-23 00:00:00 17 7 Sudoeste 10 Sudoeste 0 -- -- 49
2019-06-22 23:00:00 19.4 5 Oeste 15 Sudoeste 0 -- -- 39
2019-06-22 22:00:00 22.5 8 Sudoeste 23 Sudoeste 0 -- -- 26
2019-06-22 21:00:00 26.4 16 Sudoeste 32 Sudoeste 0 -- -- 23
2019-06-22 20:00:00 28.3 18 Sudoeste 38 Sudoeste 0 -- -- 22
2019-06-22 19:00:00 28 18 Sudoeste 36 Sudoeste 0 -- -- 22
2019-06-22 18:00:00 28.6 23 Sudoeste 41 Sudoeste 0 -- -- 22
2019-06-22 17:00:00 28.7 17 Sudoeste 40 Oeste 0 -- -- 25
2019-06-22 16:00:00 28.7 18 Sur 37 Sur 0 -- -- 29
2019-06-22 15:00:00 27.8 22 Sudoeste 37 Sur 0 -- -- 27
2019-06-22 14:00:00 27.4 18 Sur 35 Sur 0 -- -- 31
2019-06-22 13:00:00 27.2 18 Sur 44 Sudoeste 0 -- -- 31
2019-06-22 12:00:00 26.3 23 Sur 36 Sudoeste 0 -- -- 32
2019-06-22 11:00:00 23.6 3 Noroeste 12 Noroeste 0 -- -- 41
2019-06-22 10:00:00 22 4 Nordeste 10 Este 0 -- -- 44
2019-06-22 09:00:00 17.6 8 Este 11 Este 0 -- -- 55
2019-06-22 08:00:00 11.6 3 Este 8 Este 0 -- -- 74
2019-06-22 07:00:00 11.7 3 Nordeste 15 Este 0 -- -- 72
2019-06-22 06:00:00 11.2 8 Este 11 Nordeste 0 -- -- 74
2019-06-22 05:00:00 11.2 6 Nordeste 12 Sudeste 0 -- -- 71
2019-06-22 04:00:00 13.6 8 Sudeste 13 Este 0 -- -- 64
2019-06-22 03:00:00 13.7 8 Sudeste 16 Este 0 -- -- 63
2019-06-22 02:00:00 15.2 11 Sudeste 19 Este 0 -- -- 58
2019-06-22 01:00:00 15 9 Este 14 Este 0 -- -- 58
2019-06-22 00:00:00 16.4 11 Este 15 Este 0 -- -- 53
2019-06-21 23:00:00 16.8 9 Este 14 Nordeste 0 -- -- 51
2019-06-21 22:00:00 20.3 7 Nordeste 14 Norte 0 -- -- 40
2019-06-21 21:00:00 24 7 Noroeste 15 Noroeste 0 -- -- 34
2019-06-21 20:00:00 24.3 10 Norte 21 Nordeste 0 -- -- 34
2019-06-21 19:00:00 24.9 10 Norte 23 Nordeste 0 -- -- 34
2019-06-21 18:00:00 24.8 8 Noroeste 20 Este 0 -- -- 35
2019-06-21 17:00:00 24.2 9 Norte 23 Norte 0 -- -- 37
2019-06-21 16:00:00 22.9 12 Nordeste 30 Nordeste 0 -- -- 41
2019-06-21 15:00:00 22.8 9 Norte 26 Este 0 -- -- 42
2019-06-21 14:00:00 21.7 10 Nordeste 22 Nordeste 0 -- -- 47
2019-06-21 13:00:00 20.3 10 Nordeste 28 Este 0 -- -- 51
2019-06-21 12:00:00 18.4 13 Nordeste 24 Este 0 -- -- 61
2019-06-21 11:00:00 16.2 17 Este 24 Este 0 -- -- 72
2019-06-21 10:00:00 14.4 10 Este 17 Este 0 -- -- 81
2019-06-21 09:00:00 13.1 4 Noroeste 9 Norte 0 -- -- 87
2019-06-21 08:00:00 11.6 0 Calma 8 Norte 0 -- -- 93
2019-06-21 07:00:00 9.5 0 Calma 7 Noroeste 0 -- -- 93
2019-06-21 06:00:00 10.7 0 Calma 5 Norte 0 -- -- 92
2019-06-21 05:00:00 11.3 2 Norte 11 Este 0 -- -- 88
2019-06-21 04:00:00 13.2 7 Nordeste 15 Nordeste 0 -- -- 87
2019-06-21 03:00:00 14.4 9 Nordeste 15 Nordeste 0 -- -- 85
2019-06-21 02:00:00 14.5 10 Nordeste 26 Nordeste 0 -- -- 83
2019-06-21 01:00:00 14.9 13 Norte 20 Noroeste 0 -- -- 80
2019-06-21 00:00:00 16.9 7 Oeste 19 Noroeste 0 -- -- 66
2019-06-20 23:00:00 17.3 10 Noroeste 19 Oeste 0 -- -- 70
2019-06-20 22:00:00 18.2 11 Noroeste 18 Oeste 0 -- -- 67
2019-06-20 21:00:00 20 9 Oeste 19 Oeste 0 -- -- 57
2019-06-20 20:00:00 19 13 Noroeste 28 Oeste 0 -- -- 57
2019-06-20 19:00:00 22 13 Oeste 27 Oeste 0 -- -- 45
2019-06-20 18:00:00 21.3 4 Sudoeste 27 Oeste 0.2 -- -- 58
2019-06-20 17:00:00 22.9 15 Oeste 25 Oeste 0 -- -- 43
2019-06-20 16:00:00 24.5 12 Oeste 26 Oeste 0 -- -- 39
2019-06-20 15:00:00 24.5 10 Sudoeste 24 Sudoeste 0 -- -- 40
2019-06-20 14:00:00 23.6 8 Oeste 20 Oeste 0 -- -- 41
2019-06-20 13:00:00 22 5 Sudoeste 18 Oeste 0 -- -- 46
2019-06-20 12:00:00 21.4 4 Este 22 Este 0 -- -- 48
2019-06-20 11:00:00 19.8 7 Nordeste 15 Nordeste 0 -- -- 54
2019-06-20 10:00:00 17.2 9 Este 15 Este 0 -- -- 64
2019-06-20 09:00:00 15.7 6 Este 9 Nordeste 0 -- -- 71
2019-06-20 08:00:00 13.8 3 Este 4 Este 0 -- -- 81
2019-06-20 07:00:00 13 0 Calma 5 Este 0 -- -- 83
2019-06-20 06:00:00 12.3 3 Este 4 Norte 0 -- -- 82
2019-06-20 05:00:00 14.8 0 Calma 3 Noroeste 0 -- -- 80
2019-06-20 04:00:00 15.2 0 Calma 5 Sudoeste 0 -- -- 79
2019-06-20 03:00:00 15.3 3 Sudoeste 8 Oeste 0 -- -- 80
2019-06-20 02:00:00 15.3 6 Oeste 14 Oeste 0 -- -- 79
2019-06-20 01:00:00 15.6 5 Oeste 13 Oeste 0 -- -- 78
2019-06-20 00:00:00 16.6 7 Oeste 14 Oeste 0 -- -- 73
2019-06-19 23:00:00 17.2 4 Noroeste 14 Oeste 0 -- -- 71
2019-06-19 22:00:00 18.6 11 Noroeste 19 Oeste 0 -- -- 66
2019-06-19 21:00:00 21 13 Oeste 26 Sudoeste 0 -- -- 57
2019-06-19 20:00:00 20.9 17 Sudoeste 30 Oeste 0 -- -- 52
2019-06-19 19:00:00 22.4 14 Sudoeste 30 Sudoeste 0 -- -- 47
2019-06-19 18:00:00 22.4 20 Sudoeste 33 Oeste 0 -- -- 46
2019-06-19 17:00:00 22.2 18 Sudoeste 32 Sudoeste 0 -- -- 49
2019-06-19 16:00:00 20.8 16 Oeste 26 Sudoeste 0 -- -- 54
2019-06-19 15:00:00 20.8 17 Oeste 33 Sudoeste 0 -- -- 56
2019-06-19 14:00:00 21.1 19 Sudoeste 35 Sudoeste 0 -- -- 53
2019-06-19 13:00:00 19.6 16 Sudoeste 29 Sudoeste 0 -- -- 58
2019-06-19 12:00:00 18 15 Sudoeste 27 Sudoeste 0 -- -- 64
2019-06-19 11:00:00 18.1 17 Sudoeste 29 Sudoeste 0 -- -- 61
2019-06-19 10:00:00 17.6 16 Sudoeste 28 Sudoeste 0 -- -- 64
2019-06-19 09:00:00 15.8 13 Sudoeste 30 Sudoeste 0 -- -- 75
2019-06-19 08:00:00 15.3 15 Sudoeste 28 Oeste 0 -- -- 79
2019-06-19 07:00:00 15.2 12 Sudoeste 24 Sudoeste 0 -- -- 81
2019-06-19 06:00:00 14.8 8 Sudoeste 23 Sudoeste 0 -- -- 84
2019-06-19 05:00:00 14.9 13 Sudoeste 25 Sudoeste 0 -- -- 82
2019-06-19 04:00:00 13.8 13 Sudoeste 22 Sudoeste 0 -- -- 84
2019-06-19 03:00:00 13.9 9 Sur 17 Sudoeste 0 -- -- 82
2019-06-19 02:00:00 14.3 11 Sudoeste 18 Sudoeste 0 -- -- 78
2019-06-19 01:00:00 15 8 Sudoeste 15 Sudoeste 0 -- -- 75
2019-06-19 00:00:00 16.5 9 Sudoeste 24 Oeste 0 -- -- 71
2019-06-18 23:00:00 18.4 15 Sudoeste 32 Sudoeste 0 -- -- 57
2019-06-18 22:00:00 19.2 11 Sudoeste 33 Sudoeste 0 -- -- 59
2019-06-18 21:00:00 20.1 20 Sudoeste 45 Sur 0 -- -- 55
2019-06-18 20:00:00 21.1 18 Sudoeste 57 Sudoeste 0 -- -- 53
2019-06-18 19:00:00 22.1 21 Sudoeste 45 Sudoeste 0 -- -- 48
2019-06-18 18:00:00 21.7 30 Sudoeste 51 Sur 0 -- -- 50
2019-06-18 17:00:00 22.5 24 Sudoeste 53 Sur 0 -- -- 46
2019-06-18 16:00:00 19.6 26 Sudoeste 48 Sudoeste 0 -- -- 59
2019-06-18 15:00:00 22.1 30 Sudoeste 53 Sudoeste 0 -- -- 47
2019-06-18 14:00:00 21.8 30 Sudoeste 49 Sudoeste 0 -- -- 47
2019-06-18 13:00:00 21.1 26 Sur 44 Sur 0 -- -- 42
2019-06-18 12:00:00 22.5 23 Sudoeste 42 Sudoeste 0 -- -- 39
2019-06-18 11:00:00 20.9 24 Sur 39 Sudoeste 0 -- -- 35
2019-06-18 10:00:00 19.7 19 Sur 31 Sur 0 -- -- 27
2019-06-18 09:00:00 17.7 10 Sudoeste 18 Sudoeste 0 -- -- 37
2019-06-18 08:00:00 13.5 4 Sudoeste 13 Sur 0 -- -- 56
2019-06-18 07:00:00 11.4 6 Sur 17 Sudoeste 0 -- -- 56
2019-06-18 06:00:00 13 11 Sudoeste 18 Sudoeste 0 -- -- 53
2019-06-18 05:00:00 13.2 7 Sudoeste 15 Sudoeste 0 -- -- 51
2019-06-18 04:00:00 13.8 10 Sudoeste 18 Sudoeste 0 -- -- 42
2019-06-18 03:00:00 13.3 2 Noroeste 14 Sudeste 0 -- -- 45
2019-06-18 02:00:00 16.2 8 Sudeste 17 Sudeste 0 -- -- 38
2019-06-18 01:00:00 16.5 8 Sudeste 13 Sudeste 0 -- -- 40
2019-06-18 00:00:00 17.5 6 Sudeste 12 Sudeste 0 -- -- 46
2019-06-17 23:00:00 19.8 7 Norte 28 Norte 0 -- -- 41
2019-06-17 22:00:00 20.8 3 Nordeste 12 Oeste 0 -- -- 39
2019-06-17 21:00:00 22.9 10 Oeste 18 Sudoeste 0 -- -- 29
2019-06-17 20:00:00 24.3 9 Oeste 28 Sudoeste 0 -- -- 25
2019-06-17 19:00:00 24.9 11 Sudoeste 31 Sudoeste 0 -- -- 28
2019-06-17 18:00:00 25.1 17 Sudoeste 30 Sudoeste 0 -- -- 28
2019-06-17 17:00:00 25.5 19 Sudoeste 34 Sudoeste 0 -- -- 27
2019-06-17 16:00:00 26.4 20 Sudoeste 36 Sur 0 -- -- 22
2019-06-17 15:00:00 27.1 18 Sur 39 Sur 0 -- -- 21
2019-06-17 14:00:00 25.6 16 Sur 33 Sudoeste 0 -- -- 25
2019-06-17 13:00:00 25.9 18 Sur 36 Sur 0 -- -- 23
2019-06-17 12:00:00 24.7 20 Sur 33 Sur 0 -- -- 28
2019-06-17 11:00:00 23.5 13 Sudoeste 30 Sudoeste 0 -- -- 34
2019-06-17 10:00:00 21 10 Sur 16 Sudeste 0 -- -- 39
2019-06-17 09:00:00 16.7 6 Sudeste 9 Sudeste 0 -- -- 57
2019-06-17 08:00:00 10.4 0 Calma 7 Sudeste 0 -- -- 83
2019-06-17 07:00:00 8.9 5 Sudeste 8 Sudeste 0 -- -- 86
2019-06-17 06:00:00 8.7 0 Calma 9 Sudeste 0 -- -- 84
2019-06-17 05:00:00 9.5 6 Sudeste 8 Sudeste 0 -- -- 85
2019-06-17 04:00:00 11.3 5 Sur 10 Sudoeste 0 -- -- 83
2019-06-17 03:00:00 12.6 6 Sudoeste 10 Sudoeste 0 -- -- 79
2019-06-17 02:00:00 13.6 5 Sudoeste 13 Sudoeste 0 -- -- 73
2019-06-17 01:00:00 15.2 9 Sudoeste 15 Sudoeste 0 -- -- 67
2019-06-17 00:00:00 16.4 10 Sudoeste 15 Sur 0 -- -- 53
2019-06-16 23:00:00 17.5 4 Sudoeste 6 Oeste 0 -- -- 36
2019-06-16 22:00:00 21.3 4 Sudoeste 17 Oeste 0 -- -- 29
2019-06-16 21:00:00 25.1 12 Oeste 23 Sudoeste 0 -- -- 24
2019-06-16 20:00:00 25.5 12 Sudoeste 24 Sudoeste 0 -- -- 23
2019-06-16 19:00:00 26.5 16 Sudoeste 33 Sudoeste 0 -- -- 22
2019-06-16 18:00:00 27 15 Sudoeste 27 Sur 0 -- -- 20
2019-06-16 17:00:00 26.8 15 Sudoeste 28 Oeste 0 -- -- 22
2019-06-16 16:00:00 26.5 14 Sudoeste 26 Oeste 0 -- -- 24
2019-06-16 15:00:00 26.2 9 Sudoeste 26 Sudoeste 0 -- -- 24
2019-06-16 14:00:00 25.2 8 Sudoeste 23 Sudoeste 0 -- -- 26
2019-06-16 13:00:00 24.2 14 Sur 23 Sudoeste 0 -- -- 25
2019-06-16 12:00:00 23.9 12 Sur 26 Sur 0 -- -- 28
2019-06-16 11:00:00 21.6 8 Nordeste 18 Nordeste 0 -- -- 35
2019-06-16 10:00:00 18.8 8 Este 13 Este 0 -- -- 43
2019-06-16 09:00:00 13.9 3 Norte 6 Este 0 -- -- 56
2019-06-16 08:00:00 10 3 Sudeste 8 Sudeste 0 -- -- 68
2019-06-16 07:00:00 6.6 8 Sudeste 10 Sudeste 0 -- -- 75
2019-06-16 06:00:00 6.2 4 Sudeste 9 Sudeste 0 -- -- 76
2019-06-16 05:00:00 6.6 6 Sudeste 8 Sudeste 0 -- -- 74
2019-06-16 04:00:00 7.4 0 Calma -- -- 0 -- -- 71
2019-06-16 03:00:00 7.8 0 Calma 7 Sudeste 0 -- -- 71
2019-06-16 02:00:00 9 4 Sudeste 7 Sudeste 0 -- -- 65
2019-06-16 01:00:00 9.6 0 Calma -- -- 0 -- -- 63
2019-06-16 00:00:00 11.3 0 Calma -- -- 0 -- -- 56
2019-06-15 23:00:00 13 0 Calma 8 Este 0 -- -- 51
2019-06-15 22:00:00 17.7 6 Noroeste 17 Norte 0 -- -- 39
2019-06-15 21:00:00 21.3 9 Noroeste 16 Oeste 0 -- -- 33
2019-06-15 20:00:00 22.1 8 Noroeste 19 Oeste 0 -- -- 31
2019-06-15 19:00:00 22.6 10 Noroeste 27 Noroeste 0 -- -- 29
2019-06-15 18:00:00 22.1 13 Oeste 21 Oeste 0 -- -- 31
2019-06-15 17:00:00 21.7 10 Oeste 20 Sudoeste 0 -- -- 34
2019-06-15 16:00:00 20.5 5 Sudoeste 22 Sur 0 -- -- 34
2019-06-15 15:00:00 19.3 6 Sur 20 Oeste 0 -- -- 38
2019-06-15 14:00:00 18.2 6 Oeste 16 Oeste 0 -- -- 42
2019-06-15 13:00:00 16.8 9 Noroeste 19 Oeste 0 -- -- 46
2019-06-15 12:00:00 15.5 6 Norte 15 Oeste 0 -- -- 50
2019-06-15 11:00:00 13.4 6 Sudoeste 12 Sudoeste 0 -- -- 63
2019-06-15 10:00:00 11.7 6 Noroeste 13 Noroeste 0 -- -- 70
2019-06-15 09:00:00 9.7 4 Oeste 8 Oeste 0 -- -- 83
2019-06-15 08:00:00 7.4 4 Sudoeste 8 Sudoeste 0 -- -- 94
2019-06-15 07:00:00 5.3 5 Sur 9 Sudoeste 0 -- -- 93
2019-06-15 06:00:00 5.8 6 Sudoeste 13 Sudoeste 0 -- -- 91
2019-06-15 05:00:00 6.6 7 Sudoeste 12 Sudoeste 0 -- -- 89
2019-06-15 04:00:00 6.9 6 Sur 12 Sudoeste 0 -- -- 86
2019-06-15 03:00:00 7.1 7 Sudoeste 11 Sudoeste 0 -- -- 84
2019-06-15 02:00:00 8 5 Sudoeste 15 Sudoeste 0 -- -- 78
2019-06-15 01:00:00 9.2 6 Sudoeste 13 Sudoeste 0 -- -- 72
2019-06-15 00:00:00 10.8 7 Oeste 21 Oeste 0 -- -- 67
2019-06-14 23:00:00 12.7 12 Oeste 23 Oeste 0 -- -- 63
2019-06-14 22:00:00 12.8 13 Oeste 33 Oeste 0 -- -- 56
2019-06-14 21:00:00 14.2 23 Oeste 35 Oeste 0 -- -- 52
2019-06-14 20:00:00 16.2 21 Oeste 36 Oeste 0 -- -- 43
2019-06-14 19:00:00 17 21 Oeste 39 Oeste 0 -- -- 41
2019-06-14 18:00:00 18 16 Oeste 37 Oeste 0 -- -- 39
2019-06-14 17:00:00 18.7 17 Oeste 33 Sudoeste 0 -- -- 39
2019-06-14 16:00:00 19.5 18 Oeste 40 Oeste 0 -- -- 37
2019-06-14 15:00:00 18.2 19 Sudoeste 36 Sudoeste 0 -- -- 40
2019-06-14 14:00:00 17.6 17 Oeste 33 Sudoeste 0 -- -- 44
2019-06-14 13:00:00 17 12 Oeste 31 Oeste 0 -- -- 46
2019-06-14 12:00:00 15.4 12 Sudoeste 25 Oeste 0 -- -- 53
2019-06-14 11:00:00 13.5 9 Oeste 18 Sudoeste 0 -- -- 62
2019-06-14 10:00:00 11.6 8 Oeste 17 Sudoeste 0 -- -- 69
2019-06-14 09:00:00 9.8 9 Oeste 14 Oeste 0 -- -- 75
2019-06-14 08:00:00 6.6 4 Sur 10 Sudeste 0 -- -- 84
2019-06-14 07:00:00 4.2 6 Sudeste 8 Sudeste 0 -- -- 88
2019-06-14 06:00:00 5.5 3 Sur 8 Sudoeste 0 -- -- 82
2019-06-14 05:00:00 7 4 Sudoeste 8 Sudoeste 0 -- -- 80
2019-06-14 04:00:00 7.6 5 Sudoeste 9 Sudoeste 0 -- -- 77
2019-06-14 03:00:00 8.2 4 Sudoeste 9 Sudoeste 0 -- -- 74
2019-06-14 02:00:00 9 5 Sudoeste 8 Sudoeste 0 -- -- 70
2019-06-14 01:00:00 10 0 Calma 5 Sudoeste 0 -- -- 65
2019-06-14 00:00:00 11.4 5 Oeste 9 Oeste 0 -- -- 59
2019-06-13 23:00:00 13.6 5 Oeste 15 Oeste 0 -- -- 52
2019-06-13 22:00:00 16.3 11 Oeste 26 Oeste 0 -- -- 45
2019-06-13 21:00:00 19.7 14 Oeste 28 Oeste 0 -- -- 38
2019-06-13 20:00:00 21.7 12 Oeste 28 Oeste 0 -- -- 36
2019-06-13 19:00:00 22.6 14 Noroeste 28 Oeste 0 -- -- 33
2019-06-13 18:00:00 22.9 13 Oeste 31 Oeste 0 -- -- 32
2019-06-13 17:00:00 22.7 12 Sudoeste 34 Sudoeste 0 -- -- 30
2019-06-13 16:00:00 21.9 14 Sudoeste 31 Sudoeste 0 -- -- 32
2019-06-13 15:00:00 20.9 12 Sudoeste 28 Oeste 0 -- -- 35
2019-06-13 14:00:00 19.8 14 Sudoeste 30 Norte 0 -- -- 37
2019-06-13 13:00:00 17.9 9 Sudoeste 22 Noroeste 0 -- -- 43
2019-06-13 12:00:00 16 7 Sudoeste 15 Sudoeste 0 -- -- 48
2019-06-13 11:00:00 13.9 6 Oeste 14 Oeste 0 -- -- 58
2019-06-13 10:00:00 11.6 5 Noroeste 12 Noroeste 0 -- -- 67
2019-06-13 09:00:00 9.5 7 Oeste 13 Sudoeste 0 -- -- 79
2019-06-13 08:00:00 7.5 5 Sudoeste 9 Sudoeste 0 -- -- 88
2019-06-13 07:00:00 5.7 7 Sudoeste 12 Sudoeste 0 -- -- 90
2019-06-13 06:00:00 6 6 Sudoeste 10 Sudoeste 0 -- -- 85
2019-06-13 05:00:00 6.7 6 Sudoeste 10 Sudoeste 0 -- -- 82
2019-06-13 04:00:00 7.4 7 Sudoeste 13 Sudoeste 0 -- -- 73
2019-06-13 03:00:00 8.2 7 Sudoeste 12 Sur 0 -- -- 64
2019-06-13 02:00:00 8.1 6 Sur 9 Sudoeste 0 -- -- 58
2019-06-13 01:00:00 8 5 Sur 7 Sur 0 -- -- 57
2019-06-13 00:00:00 9.4 0 Calma 11 Nordeste 0 -- -- 50
2019-06-12 23:00:00 11.6 0 Calma 9 Noroeste 0 -- -- 40
2019-06-12 22:00:00 16 8 Noroeste 15 Noroeste 0 -- -- 30
2019-06-12 21:00:00 19.2 13 Noroeste 22 Noroeste 0 -- -- 25
2019-06-12 20:00:00 20.7 12 Noroeste 25 Oeste 0 -- -- 25
2019-06-12 19:00:00 21.5 13 Noroeste 24 Noroeste 0 -- -- 24
2019-06-12 18:00:00 21.7 13 Oeste 29 Oeste 0 -- -- 23
2019-06-12 17:00:00 21.5 14 Oeste 31 Sudoeste 0 -- -- 24
2019-06-12 16:00:00 21 8 Noroeste 29 Oeste 0 -- -- 23
2019-06-12 15:00:00 19.9 14 Oeste 27 Oeste 0 -- -- 27
2019-06-12 14:00:00 18.4 10 Noroeste 17 Noroeste 0 -- -- 32
2019-06-12 13:00:00 16.8 5 Sudoeste 20 Este 0 -- -- 35
2019-06-12 12:00:00 15.7 9 Nordeste 32 Nordeste 0 -- -- 39
2019-06-12 11:00:00 14.2 14 Este 28 Este 0 -- -- 44
2019-06-12 10:00:00 12 19 Este 29 Este 0 -- -- 49
2019-06-12 09:00:00 10 18 Este 27 Este 0 -- -- 57
2019-06-12 08:00:00 6.8 10 Este 16 Este 0 -- -- 67
2019-06-12 07:00:00 2.7 4 Este 8 Este 0 -- -- 77
2019-06-12 06:00:00 4.7 6 Este 14 Este 0 -- -- 71
2019-06-12 05:00:00 4.8 7 Este 9 Este 0 -- -- 70
2019-06-12 04:00:00 5.7 8 Este 10 Este 0 -- -- 67
2019-06-12 03:00:00 6.6 6 Este 12 Este 0 -- -- 62
2019-06-12 02:00:00 7.6 7 Este 12 Nordeste 0 -- -- 59
2019-06-12 01:00:00 8.8 3 Nordeste 10 Nordeste 0 -- -- 50
2019-06-12 00:00:00 11 5 Norte 17 Oeste 0 -- -- 45
2019-06-11 23:00:00 12.1 8 Este 10 Nordeste 0 -- -- 41
2019-06-11 22:00:00 14.8 8 Nordeste 20 Nordeste 0 -- -- 35
2019-06-11 21:00:00 18.2 13 Nordeste 22 Norte 0 -- -- 27
2019-06-11 20:00:00 18.9 16 Norte 31 Norte 0 -- -- 25
2019-06-11 19:00:00 19.5 12 Norte 32 Norte 0 -- -- 25
2019-06-11 18:00:00 19.6 19 Norte 36 Norte 0 -- -- 24
2019-06-11 17:00:00 19.4 19 Norte 39 Norte 0 -- -- 24
2019-06-11 16:00:00 19.3 23 Norte 36 Nordeste 0 -- -- 24
2019-06-11 15:00:00 17.2 19 Norte 37 Nordeste 0 -- -- 32
2019-06-11 14:00:00 17.3 22 Norte 39 Norte 0 -- -- 32
2019-06-11 13:00:00 16.6 24 Norte 38 Norte 0 -- -- 38
2019-06-11 12:00:00 16.4 18 Norte 33 Norte 0 -- -- 41
2019-06-11 11:00:00 14.2 22 Norte 38 Nordeste 0 -- -- 49
2019-06-11 10:00:00 12.5 21 Norte 28 Norte 0 -- -- 57
2019-06-11 09:00:00 11 13 Norte 21 Norte 0 -- -- 69
2019-06-11 08:00:00 9.8 8 Noroeste 12 Noroeste 0 -- -- 79
2019-06-11 07:00:00 9.2 4 Noroeste 8 Noroeste 0 -- -- 80
2019-06-11 06:00:00 9.3 5 Noroeste 10 Oeste 0 -- -- 78
2019-06-11 05:00:00 10.5 3 Oeste 9 Oeste 0 -- -- 74
2019-06-11 04:00:00 10.8 6 Oeste 10 Noroeste 0 -- -- 73
2019-06-11 03:00:00 11.7 7 Oeste 17 Oeste 0 -- -- 68
2019-06-11 02:00:00 11.7 9 Oeste 15 Oeste 0 -- -- 70
2019-06-11 01:00:00 13.3 12 Oeste 33 Noroeste 0 -- -- 63
2019-06-11 00:00:00 14.2 9 Oeste 22 Oeste 0 -- -- 59
2019-06-10 23:00:00 15.5 12 Oeste 24 Oeste 0 -- -- 55
2019-06-10 22:00:00 17.1 13 Oeste 27 Oeste 0 -- -- 47
2019-06-10 21:00:00 20 18 Oeste 26 Oeste 0 -- -- 37
2019-06-10 20:00:00 21.7 13 Oeste 28 Oeste 0 -- -- 28
2019-06-10 19:00:00 22 15 Noroeste 27 Oeste 0 -- -- 25
2019-06-10 18:00:00 22 17 Oeste 29 Oeste 0 -- -- 25
2019-06-10 17:00:00 21.5 10 Noroeste 27 Noroeste 0 -- -- 27
2019-06-10 16:00:00 20.9 10 Oeste 32 Oeste 0 -- -- 34
2019-06-10 15:00:00 20.3 9 Oeste 23 Sudoeste 0 -- -- 34
2019-06-10 14:00:00 19 6 Noroeste 18 Oeste 0 -- -- 42
2019-06-10 13:00:00 17.7 9 Noroeste 17 Noroeste 0 -- -- 47
2019-06-10 12:00:00 16.3 5 Sur 14 Oeste 0 -- -- 56
2019-06-10 11:00:00 14.8 5 Norte 11 Norte 0 -- -- 64
2019-06-10 10:00:00 12.8 3 Norte 8 Norte 0 -- -- 71
2019-06-10 09:00:00 10.4 3 Norte 6 Norte 0 -- -- 81
2019-06-10 08:00:00 7.3 0 Calma 5 Sudoeste 0 -- -- 92
2019-06-10 07:00:00 5.7 4 Sudoeste 5 Sudoeste 0 -- -- 92
2019-06-10 06:00:00 6.1 4 Sudoeste 6 Oeste 0 -- -- 90
2019-06-10 05:00:00 6.7 0 Calma 5 Sudoeste 0 -- -- 87
2019-06-10 04:00:00 7.6 5 Sudoeste 8 Oeste 0 -- -- 85
2019-06-10 03:00:00 8.6 4 Sudoeste 7 Oeste 0 -- -- 82
2019-06-10 02:00:00 9.4 4 Sudoeste 8 Sudoeste 0 -- -- 80
2019-06-10 01:00:00 10.1 5 Sudoeste 9 Oeste 0 -- -- 76
2019-06-10 00:00:00 12 5 Oeste 14 Noroeste 0 -- -- 68
2019-06-09 23:00:00 14 10 Noroeste 19 Noroeste 0 -- -- 62
2019-06-09 22:00:00 15.7 12 Noroeste 24 Noroeste 0 -- -- 54
2019-06-09 21:00:00 17.8 17 Noroeste 29 Noroeste 0 -- -- 46
2019-06-09 20:00:00 19.8 18 Noroeste 32 Noroeste 0 -- -- 37
2019-06-09 19:00:00 20.6 17 Oeste 32 Oeste 0 -- -- 34
2019-06-09 18:00:00 21.3 18 Oeste 33 Oeste 0 -- -- 33
2019-06-09 17:00:00 21.6 14 Oeste 33 Noroeste 0 -- -- 34
2019-06-09 16:00:00 21.3 14 Oeste 31 Oeste 0 -- -- 34
2019-06-09 15:00:00 20.4 17 Noroeste 33 Noroeste 0 -- -- 36
2019-06-09 14:00:00 19.8 13 Oeste 27 Oeste 0 -- -- 37
2019-06-09 13:00:00 18.4 13 Oeste 24 Oeste 0 -- -- 43
2019-06-09 12:00:00 16.3 7 Oeste 18 Oeste 0 -- -- 50
2019-06-09 11:00:00 14.5 7 Oeste 15 Oeste 0 -- -- 61
2019-06-09 10:00:00 12.2 8 Oeste 15 Oeste 0 -- -- 71
2019-06-09 09:00:00 10.2 6 Oeste 15 Sudoeste 0 -- -- 81
2019-06-09 08:00:00 8.1 8 Sudoeste 12 Sudoeste 0 -- -- 88
2019-06-09 07:00:00 7.1 8 Sudoeste 13 Sudoeste 0 -- -- 90
2019-06-09 06:00:00 7.5 8 Sudoeste 12 Sudoeste 0 -- -- 90
2019-06-09 05:00:00 8.2 9 Sudoeste 13 Sudoeste 0 -- -- 88
2019-06-09 04:00:00 8 5 Sudoeste 8 Sur 0 -- -- 86
2019-06-09 03:00:00 9.3 7 Sur 15 Sudoeste 0 -- -- 84
2019-06-09 02:00:00 10.7 12 Sudoeste 17 Sudoeste 0 -- -- 80
2019-06-09 01:00:00 11.5 10 Sudoeste 14 Sudoeste 0 -- -- 77
2019-06-09 00:00:00 12.4 8 Sudoeste 12 Oeste 0 -- -- 68
2019-06-08 23:00:00 14.5 5 Oeste 11 Oeste 0 -- -- 51
2019-06-08 22:00:00 17.7 3 Oeste 17 Noroeste 0 -- -- 41
2019-06-08 21:00:00 19.8 13 Noroeste 28 Noroeste 0 -- -- 36
2019-06-08 20:00:00 22 15 Oeste 27 Oeste 0 -- -- 27
2019-06-08 19:00:00 23.2 15 Sudoeste 27 Sudoeste 0 -- -- 24
2019-06-08 18:00:00 23.3 10 Oeste 24 Sudoeste 0 -- -- 25
2019-06-08 17:00:00 23.8 14 Sudoeste 27 Oeste 0 -- -- 24
2019-06-08 16:00:00 22.4 11 Oeste 28 Oeste 0 -- -- 27
2019-06-08 15:00:00 23 9 Sudoeste 21 Este 0 -- -- 26
2019-06-08 14:00:00 21.5 4 Norte 20 Este 0 -- -- 32
2019-06-08 13:00:00 19.7 6 Nordeste 27 Nordeste 0 -- -- 34
2019-06-08 12:00:00 18.1 11 Nordeste 25 Este 0 -- -- 40
2019-06-08 11:00:00 15.4 18 Este 27 Este 0 -- -- 46
2019-06-08 10:00:00 12.4 12 Nordeste 21 Nordeste 0 -- -- 57
2019-06-08 09:00:00 8.8 10 Este 16 Este 0 -- -- 76
2019-06-08 08:00:00 5.8 6 Este 10 Este 0 -- -- 88
2019-06-08 07:00:00 2.7 0 Calma 8 Este 0 -- -- 92
2019-06-08 06:00:00 3.8 7 Este 15 Este 0 -- -- 90
2019-06-08 05:00:00 3.8 0 Calma 6 Sudeste 0 -- -- 91
2019-06-08 04:00:00 4.3 4 Sudeste 5 Sudeste -- -- -- 91
2019-06-08 03:00:00 5.1 2 Sudeste 6 Sudeste 0 -- -- 86
2019-06-08 02:00:00 5.7 0 Calma 4 Sudeste 0 -- -- 87
2019-06-08 01:00:00 6.6 0 Calma -- -- 0 -- -- 84
2019-06-08 00:00:00 8.5 0 Calma 4 Noroeste 0 -- -- 73
2019-06-07 23:00:00 10.3 4 Noroeste 10 Noroeste 0 -- -- 64
2019-06-07 22:00:00 13.4 3 Noroeste 9 Noroeste 0 -- -- 55
2019-06-07 21:00:00 15.6 5 Norte 20 Noroeste 0 -- -- 47
2019-06-07 20:00:00 17 12 Noroeste 23 Noroeste 0 -- -- 37
2019-06-07 19:00:00 17.4 6 Oeste 21 Noroeste 0 -- -- 36
2019-06-07 18:00:00 17.3 12 Oeste 22 Oeste 0 -- -- 37
2019-06-07 17:00:00 15.4 10 Noroeste 26 Sudoeste 0 -- -- 43
2019-06-07 16:00:00 15.3 15 Sudoeste 28 Oeste 0 -- -- 45
2019-06-07 15:00:00 14.2 12 Oeste 24 Oeste 0 -- -- 50
2019-06-07 14:00:00 14.2 13 Oeste 27 Oeste 0 -- -- 51
2019-06-07 13:00:00 12.5 13 Oeste 24 Oeste 0 -- -- 56
2019-06-07 12:00:00 12.3 11 Oeste 22 Noroeste 0 -- -- 63
2019-06-07 11:00:00 10.7 12 Oeste 25 Oeste 0 -- -- 69
2019-06-07 10:00:00 9 12 Oeste 24 Oeste 0 -- -- 76
2019-06-07 09:00:00 8.6 13 Sudoeste 25 Sudoeste 0 -- -- 82
2019-06-07 08:00:00 7.4 12 Oeste 21 Oeste 0 -- -- 91
2019-06-07 07:00:00 7.1 12 Oeste 26 Oeste 0 -- -- 91
2019-06-07 06:00:00 6.9 14 Sudoeste 23 Sudoeste 0 -- -- 92
2019-06-07 05:00:00 7.3 12 Sudoeste 25 Sudoeste 0 -- -- 91
2019-06-07 04:00:00 6.8 13 Sudoeste 29 Oeste 0 -- -- 91
2019-06-07 03:00:00 7.3 17 Sudoeste 27 Sudoeste 0 -- -- 90
2019-06-07 02:00:00 7.1 11 Sudoeste 27 Sudoeste 0 -- -- 92
2019-06-07 01:00:00 8.2 17 Sudoeste 31 Sudoeste 0 -- -- 91
2019-06-07 00:00:00 8.8 17 Sudoeste 32 Sudoeste 0.2 -- -- 93
2019-06-06 23:00:00 9.3 22 Oeste 40 Sudoeste 2 -- -- 93
2019-06-06 22:00:00 11.4 29 Oeste 60 Sudoeste 1.8 -- -- 84
2019-06-06 21:00:00 14.7 36 Sudoeste 64 Sudoeste 0 -- -- 65
2019-06-06 20:00:00 16.2 26 Sudoeste 53 Sudoeste 0 -- -- 55
2019-06-06 19:00:00 17 31 Sudoeste 57 Sur 0 -- -- 48
2019-06-06 18:00:00 17.9 38 Sudoeste 63 Sudoeste 0 -- -- 45
2019-06-06 17:00:00 19.6 35 Sudoeste 62 Sur 0 -- -- 41
2019-06-06 16:00:00 18.8 33 Sudoeste 53 Sur 0 -- -- 41
2019-06-06 15:00:00 18.3 30 Sudoeste 53 Sudoeste 0 -- -- 37
2019-06-06 14:00:00 18.2 23 Sudoeste 48 Sudoeste 0 -- -- 34
2019-06-06 13:00:00 16.8 18 Sur 32 Sudoeste 0 -- -- 41
2019-06-06 12:00:00 15.6 9 Sur 30 Sudoeste 0 -- -- 45
2019-06-06 11:00:00 13.4 11 Sudoeste 19 Sudoeste 0 -- -- 51
2019-06-06 10:00:00 11 4 Sur 10 Sudeste 0 -- -- 63
2019-06-06 09:00:00 8.9 5 Sudoeste 9 Sur 0 -- -- 75
2019-06-06 08:00:00 5.1 4 Sur 9 Sur 0 -- -- 88
2019-06-06 07:00:00 3 4 Sur 6 Sudeste 0 -- -- 88
2019-06-06 06:00:00 4 4 Sur 9 Sudoeste 0 -- -- 85
2019-06-06 05:00:00 4.5 6 Sur 10 Sur 0 -- -- 81
2019-06-06 04:00:00 5.3 6 Sur 10 Sudoeste 0 -- -- 77
2019-06-06 03:00:00 5.8 6 Sudoeste 9 Sudoeste 0 -- -- 75
2019-06-06 02:00:00 6.4 5 Sudoeste 9 Sudoeste 0 -- -- 70
2019-06-06 01:00:00 7 5 Sudoeste 8 Oeste 0 -- -- 67
2019-06-06 00:00:00 9 5 Oeste 19 Oeste 0 -- -- 61
2019-06-05 23:00:00 11.5 13 Oeste 26 Noroeste 0 -- -- 54
2019-06-05 22:00:00 12 10 Oeste 22 Oeste 0 -- -- 54
2019-06-05 21:00:00 13.7 15 Noroeste 28 Oeste 0 -- -- 46
2019-06-05 20:00:00 14.7 14 Oeste 32 Oeste 0 -- -- 43
2019-06-05 19:00:00 15.8 15 Oeste 36 Oeste 0 -- -- 43
2019-06-05 18:00:00 15.9 15 Oeste 39 Oeste 0 -- -- 39
2019-06-05 17:00:00 16.9 24 Oeste 37 Sudoeste 0 -- -- 41
2019-06-05 16:00:00 15.9 15 Noroeste 34 Noroeste 0 -- -- 39
2019-06-05 15:00:00 16.2 18 Oeste 34 Oeste 0 -- -- 41
2019-06-05 14:00:00 14.7 15 Noroeste 33 Oeste 0 -- -- 46
2019-06-05 13:00:00 14.2 15 Oeste 36 Noroeste 0 -- -- 51
2019-06-05 12:00:00 13 18 Noroeste 32 Noroeste 0 -- -- 54
2019-06-05 11:00:00 11.6 19 Oeste 32 Oeste 0 -- -- 61
2019-06-05 10:00:00 10.6 19 Noroeste 30 Oeste 0 -- -- 66
2019-06-05 09:00:00 9.2 12 Oeste 27 Oeste 0 -- -- 78
2019-06-05 08:00:00 7.8 11 Oeste 23 Oeste 0 -- -- 85
2019-06-05 07:00:00 7.2 11 Oeste 23 Sudoeste 0 -- -- 89
2019-06-05 06:00:00 7.7 12 Oeste 20 Sudoeste 0 -- -- 87
2019-06-05 05:00:00 7 10 Oeste 19 Oeste 0 -- -- 86
2019-06-05 04:00:00 8 9 Oeste 18 Oeste 0 -- -- 83
2019-06-05 03:00:00 8.3 9 Oeste 18 Oeste 0 -- -- 81
2019-06-05 02:00:00 9.4 11 Oeste 25 Oeste 0 -- -- 75
2019-06-05 01:00:00 10.8 17 Oeste 30 Oeste 0 -- -- 70
2019-06-05 00:00:00 12.1 20 Oeste 39 Oeste 0 -- -- 65
2019-06-04 23:00:00 13.6 18 Oeste 32 Oeste 0 -- -- 53
2019-06-04 22:00:00 14.7 15 Oeste 29 Noroeste 0 -- -- 52
2019-06-04 21:00:00 15.5 16 Oeste 31 Oeste 0 -- -- 57
2019-06-04 20:00:00 16.5 15 Oeste 28 Sudoeste 0 -- -- 58
2019-06-04 19:00:00 17.5 15 Oeste 32 Oeste 0 -- -- 54
2019-06-04 18:00:00 17.6 21 Oeste 36 Noroeste 0 -- -- 58
2019-06-04 17:00:00 16.3 24 Oeste 44 Noroeste 0 -- -- 64
2019-06-04 16:00:00 20.3 26 Noroeste 39 Oeste 0 -- -- 55
2019-06-04 15:00:00 21.2 16 Oeste 30 Oeste 0 -- -- 46
2019-06-04 14:00:00 21.2 18 Sudoeste 32 Sudoeste 0 -- -- 46
2019-06-04 13:00:00 19.4 19 Sudoeste 32 Oeste 0 -- -- 53
2019-06-04 12:00:00 18.2 16 Oeste 30 Oeste 0 -- -- 57
2019-06-04 11:00:00 16 17 Oeste 28 Oeste 0 -- -- 63
2019-06-04 10:00:00 14.7 14 Oeste 26 Oeste 0 -- -- 70
2019-06-04 09:00:00 13.6 14 Oeste 26 Sudoeste 0 -- -- 75
2019-06-04 08:00:00 12.3 11 Sudoeste 18 Oeste 0 -- -- 83
2019-06-04 07:00:00 11.9 8 Sudoeste 12 Oeste 0 -- -- 88
2019-06-04 06:00:00 11.9 7 Sudoeste 12 Sudoeste 0 -- -- 90
2019-06-04 05:00:00 11.9 6 Sudoeste 11 Sudoeste 0 -- -- 91
2019-06-04 04:00:00 11.7 3 Sudoeste 8 Oeste 0 -- -- 88
2019-06-04 03:00:00 12.5 4 Oeste 10 Sudoeste 0 -- -- 85
2019-06-04 02:00:00 13.8 5 Sudoeste 10 Sudoeste 0 -- -- 82
2019-06-04 01:00:00 14.9 6 Sudoeste 15 Oeste 0 -- -- 76
2019-06-04 00:00:00 16.6 9 Oeste 19 Oeste 0 -- -- 70
2019-06-03 23:00:00 18.1 12 Oeste 24 Oeste 0 -- -- 62
2019-06-03 22:00:00 20.5 15 Oeste 29 Oeste 0 -- -- 56
2019-06-03 21:00:00 23.9 19 Oeste 34 Oeste 0 -- -- 48
2019-06-03 20:00:00 27.3 17 Oeste 42 Sur 0 -- -- 40
2019-06-03 19:00:00 28.7 24 Sudoeste 42 Sur 0 -- -- 24
2019-06-03 18:00:00 29.5 21 Sudoeste 39 Sudoeste 0 -- -- 23
2019-06-03 17:00:00 29.1 21 Sudoeste 37 Sudoeste 0 -- -- 24
2019-06-03 16:00:00 28.9 19 Sudoeste 35 Oeste 0 -- -- 24
2019-06-03 15:00:00 27.6 21 Oeste 35 Sudoeste 0 -- -- 23
2019-06-03 14:00:00 26.5 17 Sudoeste 29 Sur 0 -- -- 23
2019-06-03 13:00:00 24.9 12 Sudoeste 23 Noroeste 0 -- -- 29
2019-06-03 12:00:00 23.3 7 Oeste 16 Oeste 0 -- -- 32
2019-06-03 11:00:00 20.9 6 Oeste 16 Oeste 0 -- -- 38
2019-06-03 10:00:00 18.5 8 Oeste 14 Oeste 0 -- -- 45
2019-06-03 09:00:00 15.8 8 Sudoeste 13 Sudoeste 0 -- -- 56
2019-06-03 08:00:00 12.8 8 Sur 13 Sur 0 -- -- 67
2019-06-03 07:00:00 10.7 3 Sudoeste 6 Sudoeste 0 -- -- 74
2019-06-03 06:00:00 13.2 0 Calma 13 Sudoeste 0 -- -- 65
2019-06-03 05:00:00 14.3 5 Sudoeste 10 Sur 0 -- -- 62
2019-06-03 04:00:00 15.8 5 Sudoeste 9 Sudoeste 0 -- -- 55
2019-06-03 03:00:00 16.4 7 Sudoeste 10 Sudoeste 0 -- -- 52
2019-06-03 02:00:00 16.4 5 Sudoeste 8 Sudoeste 0 -- -- 53
2019-06-03 01:00:00 17.8 6 Sudoeste 8 Sudoeste 0 -- -- 49
2019-06-03 00:00:00 18.8 8 Sudoeste 9 Sudoeste 0 -- -- 46
2019-06-02 23:00:00 20.1 4 Sudoeste 13 Oeste 0 -- -- 42
2019-06-02 22:00:00 23 10 Oeste 24 Oeste 0 -- -- 35
2019-06-02 21:00:00 25.1 12 Oeste 27 Noroeste 0 -- -- 30
2019-06-02 20:00:00 27.5 15 Oeste 32 Oeste 0 -- -- 24
2019-06-02 19:00:00 29.8 18 Oeste 30 Oeste 0 -- -- 22
2019-06-02 18:00:00 30.6 20 Oeste 36 Oeste 0 -- -- 22
2019-06-02 17:00:00 31 13 Oeste 39 Sudoeste 0 -- -- 20
2019-06-02 16:00:00 31.1 18 Oeste 35 Oeste 0 -- -- 20
2019-06-02 15:00:00 30 18 Sudoeste 33 Sudoeste 0 -- -- 21
2019-06-02 14:00:00 30 16 Sudoeste 32 Sudoeste 0 -- -- 21
2019-06-02 13:00:00 29 12 Oeste 24 Sudoeste 0 -- -- 20
2019-06-02 12:00:00 26.9 4 Sudoeste 11 Oeste 0 -- -- 23
2019-06-02 11:00:00 25 2 Norte 10 Noroeste 0 -- -- 26
2019-06-02 10:00:00 22.8 3 Noroeste 8 Noroeste 0 -- -- 33
2019-06-02 09:00:00 19.6 0 Calma 10 Sudeste 0 -- -- 41
2019-06-02 08:00:00 13.9 8 Sudeste 14 Sudeste 0 -- -- 58
2019-06-02 07:00:00 12 0 Calma 8 Sur 0 -- -- 63
2019-06-02 06:00:00 13.5 9 Sur 11 Sur 0 -- -- 58
2019-06-02 05:00:00 15.5 8 Sur 12 Sur 0 -- -- 49
2019-06-02 04:00:00 16.2 7 Sur 13 Sudoeste 0 -- -- 48
2019-06-02 03:00:00 17.1 9 Sudoeste 13 Sudoeste 0 -- -- 46
2019-06-02 02:00:00 15.9 7 Sur 9 Sudoeste 0 -- -- 55
2019-06-02 01:00:00 17 6 Sur 8 Sur 0 -- -- 55
2019-06-02 00:00:00 20 0 Calma 8 Sudoeste 0 -- -- 47
2019-06-01 23:00:00 21.9 6 Sudoeste 14 Oeste 0 -- -- 42
2019-06-01 22:00:00 25.5 7 Oeste 14 Oeste 0 -- -- 35
2019-06-01 21:00:00 27.2 7 Sudoeste 19 Sudoeste 0 -- -- 29
2019-06-01 20:00:00 30.8 15 Sudoeste 23 Oeste 0 -- -- 24
2019-06-01 19:00:00 31.7 11 Sudoeste 29 Sudoeste 0 -- -- 23
2019-06-01 18:00:00 32 10 Oeste 23 Oeste 0 -- -- 21
2019-06-01 17:00:00 32.3 3 Norte 30 Oeste 0 -- -- 20
2019-06-01 16:00:00 32.1 12 Sudoeste 24 Oeste 0 -- -- 19
2019-06-01 15:00:00 31.5 8 Oeste 23 Oeste 0 -- -- 21
2019-06-01 14:00:00 30.7 5 Norte 24 Oeste 0 -- -- 20
2019-06-01 13:00:00 30.1 8 Sudoeste 19 Oeste 0 -- -- 22
2019-06-01 12:00:00 28.5 10 Oeste 18 Oeste 0 -- -- 29
2019-06-01 11:00:00 26.8 7 Oeste 14 Oeste 0 -- -- 33
2019-06-01 10:00:00 23.9 3 Sudoeste 7 Noroeste 0 -- -- 41
2019-06-01 09:00:00 19.4 0 Calma 4 Sudeste 0 -- -- 51
2019-06-01 08:00:00 13.2 0 Calma 4 Sur 0 -- -- 64
2019-06-01 07:00:00 12.1 9 Sur 15 Sur 0 -- -- 66
2019-06-01 06:00:00 11.8 7 Sur 13 Sudeste 0 -- -- 65
2019-06-01 05:00:00 11.7 10 Sur 13 Sudeste 0 -- -- 64
2019-06-01 04:00:00 12.1 0 Calma 9 Sudeste 0 -- -- 65
2019-06-01 03:00:00 13.5 6 Sur 17 Oeste 0 -- -- 60
2019-06-01 02:00:00 15.4 4 Sudeste 13 Sudeste 0 -- -- 53
2019-06-01 01:00:00 16.8 9 Sudeste 12 Sudeste 0 -- -- 49
2019-06-01 00:00:00 16.2 7 Sudeste 10 Sudeste 0 -- -- 51
2019-05-31 23:00:00 17.4 0 Calma -- -- 0 -- -- 51
2019-05-31 22:00:00 24 0 Calma 11 Noroeste 0 -- -- 36
2019-05-31 21:00:00 28.2 9 Noroeste 17 Noroeste 0 -- -- 26
2019-05-31 20:00:00 30.2 5 Norte 14 Oeste 0 -- -- 23
2019-05-31 19:00:00 31 8 Oeste 18 Oeste 0 -- -- 21
2019-05-31 18:00:00 30.8 8 Oeste 22 Noroeste 0 -- -- 21
2019-05-31 17:00:00 30.6 11 Noroeste 26 Sudoeste 0 -- -- 21
2019-05-31 16:00:00 29.9 7 Noroeste 23 Noroeste 0 -- -- 22
2019-05-31 15:00:00 29.7 9 Sudoeste 17 Sudoeste 0 -- -- 22
2019-05-31 14:00:00 28.7 10 Oeste 19 Noroeste 0 -- -- 23
2019-05-31 13:00:00 27.4 4 Noroeste 17 Noroeste 0 -- -- 27
2019-05-31 12:00:00 26 9 Noroeste 19 Oeste 0 -- -- 30
2019-05-31 11:00:00 23.7 7 Norte 13 Norte 0 -- -- 33
2019-05-31 10:00:00 21.1 6 Nordeste 17 Nordeste 0 -- -- 39
2019-05-31 09:00:00 17 13 Este 20 Este 0 -- -- 47
2019-05-31 08:00:00 12.7 5 Este 13 Este 0 -- -- 59
2019-05-31 07:00:00 9.5 5 Nordeste 9 Nordeste 0 -- -- 66
2019-05-31 06:00:00 9 8 Nordeste 9 Nordeste 0 -- -- 69
2019-05-31 05:00:00 10.9 0 Calma 11 Este 0 -- -- 62
2019-05-31 04:00:00 11.6 7 Este 9 Este -- -- -- 59
2019-05-31 03:00:00 14.4 5 Sudeste 17 Sudeste 0 -- -- 51
2019-05-31 02:00:00 17.2 12 Sudeste 22 Este 0 -- -- 42
2019-05-31 01:00:00 17.7 13 Este 19 Este 0 -- -- 40
2019-05-31 00:00:00 17.3 14 Este 15 Este 0 -- -- 38
2019-05-30 23:00:00 18.5 10 Este 12 Este 0 -- -- 36
2019-05-30 22:00:00 22 7 Nordeste 17 Nordeste 0 -- -- 29
2019-05-30 21:00:00 26.7 15 Nordeste 30 Nordeste 0 -- -- 22
2019-05-30 20:00:00 28 14 Nordeste 31 Nordeste 0 -- -- 21
2019-05-30 19:00:00 28.7 19 Nordeste 30 Nordeste 0 -- -- 20
2019-05-30 18:00:00 28.8 16 Nordeste 27 Este 0 -- -- 19
2019-05-30 17:00:00 28.7 18 Nordeste 32 Nordeste 0 -- -- 19
2019-05-30 16:00:00 28.4 18 Nordeste 31 Nordeste 0 -- -- 19
2019-05-30 15:00:00 27.2 17 Este 29 Nordeste 0 -- -- 21
2019-05-30 14:00:00 26 19 Nordeste 33 Nordeste 0 -- -- 24
2019-05-30 13:00:00 24.6 21 Nordeste 33 Nordeste 0 -- -- 26
2019-05-30 12:00:00 23 22 Este 32 Este 0 -- -- 33
2019-05-30 11:00:00 20.8 16 Nordeste 27 Este 0 -- -- 41
2019-05-30 10:00:00 17.5 16 Este 24 Este 0 -- -- 52
2019-05-30 09:00:00 13.8 18 Nordeste 24 Este 0 -- -- 62
2019-05-30 08:00:00 10.5 6 Nordeste 13 Nordeste 0 -- -- 75
2019-05-30 07:00:00 8.8 7 Este 13 Este 0 -- -- 78
2019-05-30 06:00:00 8.9 6 Este 13 Este 0 -- -- 75
2019-05-30 05:00:00 9.8 9 Este 15 Este 0 -- -- 71
2019-05-30 04:00:00 11.2 10 Este 17 Este 0 -- -- 65
2019-05-30 03:00:00 12.1 13 Este 17 Este 0 -- -- 60
2019-05-30 02:00:00 12.5 7 Este 19 Este 0 -- -- 59
2019-05-30 01:00:00 14.4 14 Este 20 Este 0 -- -- 53
2019-05-30 00:00:00 16 14 Este 21 Este 0 -- -- 48
2019-05-29 23:00:00 17.3 14 Este 20 Este 0 -- -- 45
2019-05-29 22:00:00 19.2 12 Este 28 Nordeste 0 -- -- 40
2019-05-29 21:00:00 22.4 19 Nordeste 31 Nordeste 0 -- -- 33
2019-05-29 20:00:00 23.8 22 Nordeste 41 Nordeste 0 -- -- 32
2019-05-29 19:00:00 24.7 21 Nordeste 36 Nordeste 0 -- -- 29
2019-05-29 18:00:00 24.6 22 Nordeste 36 Nordeste 0 -- -- 31
2019-05-29 17:00:00 24.5 18 Nordeste 37 Este 0 -- -- 32
2019-05-29 16:00:00 23.4 22 Este 57 Nordeste 0 -- -- 33
2019-05-29 15:00:00 22.5 20 Este 38 Este 0 -- -- 34
2019-05-29 14:00:00 21.1 22 Nordeste 35 Este 0 -- -- 36
2019-05-29 13:00:00 19.8 20 Nordeste 41 Nordeste 0 -- -- 39
2019-05-29 12:00:00 17.8 27 Nordeste 38 Nordeste 0 -- -- 42
2019-05-29 11:00:00 16 26 Este 43 Nordeste 0 -- -- 46
2019-05-29 10:00:00 13.9 28 Nordeste 40 Nordeste 0 -- -- 51
2019-05-29 09:00:00 11.9 24 Este 41 Este 0 -- -- 57
2019-05-29 08:00:00 9.4 21 Nordeste 32 Este 0 -- -- 64
2019-05-29 07:00:00 8.3 20 Este 34 Este 0 -- -- 68
2019-05-29 06:00:00 8.7 21 Nordeste 34 Nordeste 0 -- -- 66
2019-05-29 05:00:00 9.1 18 Nordeste 28 Nordeste 0 -- -- 64
2019-05-29 04:00:00 10 18 Este 28 Nordeste 0 -- -- 57
2019-05-29 03:00:00 10.9 14 Este 33 Este 0 -- -- 54
2019-05-29 02:00:00 12.7 21 Este 38 Nordeste 0 -- -- 51
2019-05-29 01:00:00 14.2 29 Nordeste 44 Este 0 -- -- 50
2019-05-29 00:00:00 15.9 27 Nordeste 41 Nordeste 0 -- -- 47
2019-05-28 23:00:00 17 18 Nordeste 29 Nordeste 0 -- -- 40
2019-05-28 22:00:00 17.9 8 Nordeste 18 Nordeste 0 -- -- 39
2019-05-28 21:00:00 21.7 15 Nordeste 27 Nordeste 0 -- -- 30
2019-05-28 20:00:00 23 18 Norte 33 Nordeste 0 -- -- 28
2019-05-28 19:00:00 23.6 19 Nordeste 32 Nordeste 0 -- -- 27
2019-05-28 18:00:00 23.9 19 Nordeste 34 Norte 0 -- -- 27
2019-05-28 17:00:00 23.7 15 Norte 31 Norte 0 -- -- 28
2019-05-28 16:00:00 22.8 13 Nordeste 34 Norte 0 -- -- 29
2019-05-28 15:00:00 22.1 16 Nordeste 30 Nordeste 0 -- -- 27
2019-05-28 14:00:00 20.6 16 Nordeste 38 Nordeste 0 -- -- 33
2019-05-28 13:00:00 18.7 21 Nordeste 37 Nordeste 0 -- -- 38
2019-05-28 12:00:00 17.7 21 Nordeste 34 Nordeste 0 -- -- 39
2019-05-28 11:00:00 15.8 23 Nordeste 33 Nordeste 0 -- -- 49
2019-05-28 10:00:00 13.7 20 Nordeste 33 Este 0 -- -- 57
2019-05-28 09:00:00 11.7 20 Nordeste 31 Este 0 -- -- 66
2019-05-28 08:00:00 9.9 14 Este 30 Este 0 -- -- 76
2019-05-28 07:00:00 9 17 Nordeste 26 Nordeste 0 -- -- 79
2019-05-28 06:00:00 9.5 13 Nordeste 21 Este 0 -- -- 77
2019-05-28 05:00:00 10.6 11 Nordeste 20 Nordeste 0 -- -- 75
2019-05-28 04:00:00 11.8 12 Nordeste 19 Este 0 -- -- 75
2019-05-28 03:00:00 13.2 11 Nordeste 30 Este 0 -- -- 71
2019-05-28 02:00:00 15 15 Nordeste 23 Nordeste 0 -- -- 67
2019-05-28 01:00:00 14.5 0 Calma 7 Noroeste 0 -- -- 68
2019-05-28 00:00:00 16 4 Noroeste 12 Noroeste 0 -- -- 63
2019-05-27 23:00:00 17.6 8 Noroeste 14 Noroeste 0 -- -- 56
2019-05-27 22:00:00 19.8 7 Noroeste 18 Noroeste 0 -- -- 49
2019-05-27 21:00:00 23 9 Noroeste 17 Noroeste 0 -- -- 41
2019-05-27 20:00:00 24.5 15 Noroeste 23 Noroeste 0 -- -- 37
2019-05-27 19:00:00 25.1 13 Noroeste 26 Noroeste 0 -- -- 36
2019-05-27 18:00:00 25.9 15 Noroeste 27 Norte 0 -- -- 35
2019-05-27 17:00:00 25.4 8 Noroeste 26 Noroeste 0 -- -- 34
2019-05-27 16:00:00 25.5 15 Noroeste 30 Noroeste 0 -- -- 37
2019-05-27 15:00:00 25 10 Noroeste 27 Norte 0 -- -- 37
2019-05-27 14:00:00 24.4 11 Norte 23 Norte 0 -- -- 38
2019-05-27 13:00:00 23.7 8 Nordeste 25 Nordeste 0 -- -- 38
2019-05-27 12:00:00 22.8 13 Norte 22 Norte 0 -- -- 38
2019-05-27 11:00:00 21.7 13 Nordeste 28 Este 0 -- -- 40
2019-05-27 10:00:00 18.9 16 Este 23 Este 0 -- -- 45
2019-05-27 09:00:00 16.4 3 Nordeste 8 Sudeste 0 -- -- 63
2019-05-27 08:00:00 12.2 5 Sudeste 9 Este 0 -- -- 78
2019-05-27 07:00:00 10 6 Este 9 Este 0 -- -- 80
2019-05-27 06:00:00 12.5 3 Sur 12 Sudoeste 0 -- -- 72
2019-05-27 05:00:00 13.1 7 Sudoeste 12 Sudoeste 0 -- -- 69
2019-05-27 04:00:00 13.8 8 Sudoeste 12 Sudoeste 0 -- -- 67
2019-05-27 03:00:00 13.7 7 Sudoeste 14 Sur 0 -- -- 67
2019-05-27 02:00:00 13.5 6 Sur 13 Oeste 0 -- -- 69
2019-05-27 01:00:00 15.1 6 Oeste 10 Oeste 0 -- -- 62
2019-05-27 00:00:00 16.5 5 Sudoeste 11 Noroeste 0 -- -- 59